This is the latest recevied weather packets stored in our database for station/object F4FEB-14. If no packets are shown the sender has not sent any weather packets the latest 10 day(s).
| Time | Temp. | Humidity | Pressure | Rain* | Wind** | Luminosity | Snow |
|---|---|---|---|---|---|---|---|
| 1777218046 | 22.78° C | 29% | 1020.4 hPa | 0 mm | - | - | - |
| 1777217745 | 23.33° C | 29% | 1020.4 hPa | 0 mm | - | - | - |
| 1777217442 | 23.89° C | 29% | 1020.3 hPa | 0 mm | - | - | - |
| 1777217142 | 23.89° C | 29% | 1020.3 hPa | 0 mm | - | - | - |
| 1777216840 | 23.89° C | 29% | 1020.2 hPa | 0 mm | - | - | - |
| 1777216538 | 23.89° C | 30% | 1020.3 hPa | 0 mm | - | - | - |
| 1777216236 | 23.33° C | 31% | 1020.4 hPa | 0 mm | - | - | - |
| 1777215936 | 23.33° C | 30% | 1020.3 hPa | 0 mm | - | - | - |
| 1777215634 | 22.78° C | 31% | 1020.4 hPa | 0 mm | - | - | - |
| 1777215333 | 23.89° C | 32% | 1020.2 hPa | 0 mm | - | - | - |
| 1777215032 | 23.33° C | 32% | 1020.3 hPa | 0 mm | - | - | - |
| 1777215031 | 23.33° C | 32% | 1020.3 hPa | 0 mm | - | - | - |
| 1777214730 | 23.89° C | 32% | 1020.2 hPa | 0 mm | - | - | - |
| 1777214429 | 23.33° C | 33% | 1020.3 hPa | 0 mm | - | - | - |
| 1777214128 | 23.33° C | 32% | 1020.4 hPa | 0 mm | - | - | - |
| 1777213827 | 23.33° C | 31% | 1020.4 hPa | 0 mm | - | - | - |
| 1777213526 | 22.78° C | 33% | 1020.5 hPa | 0 mm | - | - | - |
| 1777213225 | 22.78° C | 33% | 1020.5 hPa | 0 mm | - | - | - |
| 1777212924 | 23.33° C | 34% | 1020.5 hPa | 0 mm | - | - | - |
| 1777212624 | 23.33° C | 34% | 1020.6 hPa | 0 mm | - | - | - |
| 1777212322 | 23.33° C | 34% | 1020.6 hPa | 0 mm | - | - | - |
| 1777211720 | 23.33° C | 33% | 1020.6 hPa | 0 mm | - | - | - |
| 1777211418 | 22.78° C | 33% | 1020.7 hPa | 0 mm | - | - | - |
| 1777211117 | 23.33° C | 33% | 1020.6 hPa | 0 mm | - | - | - |
| 1777210816 | 22.78° C | 34% | 1020.6 hPa | 0 mm | - | - | - |
* Rain latest hour (hover to see other rain measurements)
** Current wind speed in m/s (hover to see current wind gust speed)